Time;durP1;ratioP1;P1;durP2;ratioP2;P2;SDS_P1;SDS_P2;PMS_P1;PMS_P2;Temp;Humidity;BMP_temperature;BMP_pressure;BME280_temperature;BME280_humidity;BME280_pressure;Samples;Min_cycle;Max_cycle;Signal;HPM_P1;HPM_P2
2022/01/25 00:08:39;;;;;;;11.23;10.27;;;;;;;4.54;90.27;102717.69;5031919;28;20209;-77
2022/01/25 00:25:05;;;;;;;11.13;10.07;;;;;;;4.41;90.51;102702.47;5032022;28;20236;-79
2022/01/25 00:27:51;;;;;;;10.87;9.87;;;;;;;4.45;90.38;102704.38;5032314;28;20225;-79
2022/01/25 00:30:32;;;;;;;13.83;11.60;;;;;;;4.18;89.61;102725.63;5031458;28;20206;-78
2022/01/25 00:33:00;;;;;;;11.50;10.40;;;;;;;4.23;89.10;102727.53;5031847;28;20210;-78
2022/01/25 00:35:26;;;;;;;12.63;11.43;;;;;;;4.33;90.08;102722.81;5036897;28;20229;-78
2022/01/25 00:37:52;;;;;;;13.13;11.87;;;;;;;4.35;90.07;102707.38;5031932;28;20202;-78
2022/01/25 00:40:19;;;;;;;13.17;11.03;;;;;;;4.41;90.18;102696.41;5031075;28;20735;-78
2022/01/25 00:42:46;;;;;;;11.80;10.70;;;;;;;4.48;90.70;102695.84;5031943;28;20635;-79
2022/01/25 00:45:15;;;;;;;11.17;10.17;;;;;;;4.50;90.82;102694.22;5031510;28;20233;-78
2022/01/25 00:47:46;;;;;;;11.37;10.27;;;;;;;4.52;90.86;102684.81;5031849;28;20293;-78
2022/01/25 00:50:15;;;;;;;12.63;10.27;;;;;;;4.53;90.25;102692.63;5031295;28;20612;-78
2022/01/25 00:55:27;;;;;;;12.37;11.27;;;;;;;4.28;89.46;102710.50;5031372;28;20264;-78
2022/01/25 00:57:53;;;;;;;13.43;12.23;;;;;;;4.18;90.17;102709.22;5031778;28;20206;-78
2022/01/25 01:00:20;;;;;;;12.93;11.70;;;;;;;4.26;90.16;102692.38;5031108;28;20560;-79
2022/01/25 01:02:46;;;;;;;12.83;11.23;;;;;;;4.29;91.21;102682.13;5034647;28;20257;-78
2022/01/25 01:05:14;;;;;;;11.50;10.50;;;;;;;4.29;90.80;102676.97;5040076;28;20226;-78
2022/01/25 01:07:41;;;;;;;11.87;10.77;;;;;;;4.38;90.74;102677.38;5035367;28;20206;-79
2022/01/25 01:10:09;;;;;;;12.23;11.13;;;;;;;4.35;90.22;102682.41;5035447;28;20213;-78
2022/01/25 01:13:10;;;;;;;12.07;10.87;;;;;;;4.23;90.56;102688.75;5035524;28;20577;-79
2022/01/25 01:15:39;;;;;;;12.10;11.00;;;;;;;4.34;90.34;102678.06;5035273;28;20230;-79
2022/01/25 01:29:20;;;;;;;12.33;11.10;;;;;;;4.23;89.39;102692.22;5042743;28;20240;-78
2022/01/25 01:31:58;;;;;;;12.83;11.63;;;;;;;4.08;89.88;102679.50;5045173;28;20294;-77
2022/01/25 01:40:07;;;;;;;12.07;10.97;;;;;;;4.31;91.38;102635.69;5035087;28;20202;-78
2022/01/25 01:45:31;;;;;;;11.90;10.80;;;;;;;4.32;91.58;102625.41;5046421;28;20232;-78
2022/01/25 01:48:03;;;;;;;12.07;10.87;;;;;;;4.35;90.96;102625.50;5045481;28;20260;-77
2022/01/25 01:50:32;;;;;;;12.73;11.07;;;;;;;4.39;90.60;102634.28;5041910;28;20263;-77
2022/01/25 01:53:02;;;;;;;11.63;10.63;;;;;;;4.43;90.79;102623.25;5044728;28;20247;-78
2022/01/25 01:55:29;;;;;;;12.73;11.53;;;;;;;4.48;90.87;102632.09;5041411;28;20385;-77
2022/01/25 01:57:57;;;;;;;12.47;11.17;;;;;;;4.26;90.03;102643.25;5042794;28;20214;-78
2022/01/25 02:00:30;;;;;;;12.90;11.73;;;;;;;4.33;90.67;102647.84;5045539;28;20202;-77
2022/01/25 02:02:57;;;;;;;12.27;11.27;;;;;;;4.35;90.38;102643.63;5042974;28;20264;-78
2022/01/25 02:05:23;;;;;;;14.37;11.93;;;;;;;4.41;90.17;102643.00;5040785;28;20279;-78
2022/01/25 02:07:49;;;;;;;12.47;11.37;;;;;;;4.31;89.69;102662.41;5044661;28;20261;-78
2022/01/25 02:10:17;;;;;;;13.57;11.40;;;;;;;4.37;89.93;102664.38;5041724;28;20210;-78
2022/01/25 02:12:46;;;;;;;12.93;11.83;;;;;;;4.37;90.84;102635.94;5046975;28;20197;-78
2022/01/25 02:15:13;;;;;;;12.60;11.50;;;;;;;4.40;90.51;102637.75;5041872;28;20252;-78
2022/01/25 02:17:56;;;;;;;12.73;11.63;;;;;;;4.36;90.63;102639.31;5044557;28;20208;-78
2022/01/25 02:23:18;;;;;;;15.33;11.80;;;;;;;4.37;90.03;102638.50;5041666;28;20209;-78
2022/01/25 02:25:45;;;;;;;13.00;11.77;;;;;;;4.06;90.09;102659.56;5042640;28;20186;-78
2022/01/25 02:28:12;;;;;;;12.53;11.33;;;;;;;4.11;90.53;102643.47;5042591;28;20203;-77
2022/01/25 02:30:39;;;;;;;12.67;11.47;;;;;;;4.16;90.94;102631.63;5041704;28;20292;-78
2022/01/25 02:33:05;;;;;;;13.07;11.73;;;;;;;4.21;91.21;102618.88;5050404;28;20676;-78
2022/01/25 02:35:33;;;;;;;13.63;12.33;;;;;;;4.16;90.94;102622.97;5038934;28;20226;-78
2022/01/25 02:38:00;;;;;;;14.97;12.60;;;;;;;4.17;90.88;102619.56;5033321;28;20210;-77
2022/01/25 02:40:26;;;;;;;14.20;12.70;;;;;;;4.22;91.28;102607.72;5032732;28;20632;-78
2022/01/25 02:42:53;;;;;;;13.60;12.40;;;;;;;4.28;91.21;102609.69;5033452;28;20260;-78
2022/01/25 02:45:21;;;;;;;13.13;11.93;;;;;;;4.36;91.12;102610.88;5033091;28;20230;-78
2022/01/25 02:50:33;;;;;;;13.17;11.87;;;;;;;4.39;90.48;102621.38;5032842;28;20296;-79
2022/01/25 02:52:59;;;;;;;13.40;12.20;;;;;;;4.43;90.44;102618.09;5032962;28;20202;-77
2022/01/25 02:55:26;;;;;;;13.53;12.13;;;;;;;4.47;90.30;102632.03;5033047;28;20268;-77
2022/01/25 02:57:52;;;;;;;13.57;12.37;;;;;;;4.35;90.53;102617.75;5033127;28;20214;-78
2022/01/25 03:00:19;;;;;;;13.13;11.93;;;;;;;4.41;90.82;102616.25;5032562;28;20206;-77
2022/01/25 03:02:45;;;;;;;13.80;12.50;;;;;;;4.41;90.54;102617.13;5033181;28;20214;-78
2022/01/25 03:05:12;;;;;;;14.17;12.87;;;;;;;4.41;90.69;102616.25;5037825;28;20229;-78
2022/01/25 03:07:43;;;;;;;15.57;12.37;;;;;;;4.49;90.27;102612.28;5032521;28;20244;-77
2022/01/25 03:10:10;;;;;;;12.63;11.43;;;;;;;4.47;90.23;102625.16;5032630;28;20681;-77
2022/01/25 03:12:42;;;;;;;13.33;12.13;;;;;;;4.41;89.94;102622.31;5032851;28;20641;-78
2022/01/25 03:15:26;;;;;;;13.07;11.87;;;;;;;4.40;90.68;102615.38;5032856;28;20218;-78
2022/01/25 03:17:56;;;;;;;13.20;11.97;;;;;;;4.28;90.52;102612.25;5032736;28;20708;-78
2022/01/25 03:20:35;;;;;;;14.17;12.87;;;;;;;4.33;91.10;102601.31;5032243;28;20209;-78
2022/01/25 03:23:15;;;;;;;14.77;13.47;;;;;;;4.15;91.25;102601.41;5033065;28;20201;-78
2022/01/25 03:25:42;;;;;;;14.87;13.47;;;;;;;3.89;91.76;102597.72;5031957;28;20232;-78
2022/01/25 03:28:08;;;;;;;14.60;13.23;;;;;;;3.99;92.37;102586.09;5032420;28;20209;-76
2022/01/25 03:30:35;;;;;;;14.07;12.70;;;;;;;4.09;91.72;102577.91;5031880;28;20685;-78
2022/01/25 03:33:01;;;;;;;13.93;12.73;;;;;;;4.13;92.10;102573.75;5032915;28;20260;-78
2022/01/25 03:35:27;;;;;;;13.77;12.40;;;;;;;4.21;92.10;102572.38;5037297;28;20229;-78
2022/01/25 03:37:54;;;;;;;13.83;12.30;;;;;;;4.22;92.13;102565.47;5032286;28;20206;-78
2022/01/25 03:40:21;;;;;;;13.33;11.93;;;;;;;4.21;92.16;102568.91;5031841;28;20202;-77
2022/01/25 03:42:48;;;;;;;13.70;12.40;;;;;;;3.93;91.94;102572.91;5032489;28;20206;-78
2022/01/25 03:45:19;;;;;;;15.37;13.77;;;;;;;3.62;93.26;102542.28;5031929;28;20704;-77
2022/01/25 03:47:59;;;;;;;18.93;14.13;;;;;;;3.68;94.19;102496.06;5032117;28;20217;-79
2022/01/25 03:50:25;;;;;;;14.80;13.37;;;;;;;3.72;94.17;102497.94;5031564;28;20210;-78
2022/01/25 03:52:52;;;;;;;14.37;12.63;;;;;;;3.87;94.17;102493.44;5031921;28;20673;-77
2022/01/25 03:55:18;;;;;;;15.30;13.80;;;;;;;3.98;94.28;102491.28;5032232;28;20230;-79
2022/01/25 03:57:46;;;;;;;14.90;13.50;;;;;;;4.04;93.80;102507.03;5031647;28;20754;-78
2022/01/25 04:00:14;;;;;;;14.40;13.07;;;;;;;4.11;93.25;102524.56;5031666;28;20205;-76
2022/01/25 04:02:49;;;;;;;15.00;13.60;;;;;;;4.12;93.27;102525.44;5032107;28;20214;-79
2022/01/25 04:05:21;;;;;;;14.40;12.90;;;;;;;4.14;92.86;102526.38;5038099;28;20233;-79
2022/01/25 04:07:50;;;;;;;18.50;13.00;;;;;;;4.14;92.57;102541.91;5033654;28;20256;-78
2022/01/25 04:10:17;;;;;;;16.33;14.63;;;;;;;3.81;92.46;102549.13;5032275;28;20218;-78
2022/01/25 04:12:44;;;;;;;17.97;14.93;;;;;;;3.61;92.95;102532.75;5031916;28;20214;-77
2022/01/25 04:15:12;;;;;;;16.70;15.03;;;;;;;3.52;93.88;102504.84;5031987;28;20230;-77
2022/01/25 04:17:39;;;;;;;21.43;14.63;;;;;;;3.54;94.18;102475.69;5031994;28;20206;-77
2022/01/25 04:20:15;;;;;;;15.63;14.03;;;;;;;3.69;94.21;102482.34;5031131;28;20210;-77
2022/01/25 04:25:26;;;;;;;14.73;13.23;;;;;;;3.90;94.02;102467.72;5031715;28;20743;-79
2022/01/25 04:27:52;;;;;;;14.10;12.70;;;;;;;3.96;94.15;102468.00;5032148;28;20241;-78
2022/01/25 04:30:21;;;;;;;15.30;13.83;;;;;;;4.07;94.19;102471.00;5031975;28;20272;-78
2022/01/25 04:32:50;;;;;;;15.50;13.90;;;;;;;4.04;93.86;102480.31;5032227;28;20210;-78
2022/01/25 04:35:42;;;;;;;16.50;14.87;;;;;;;3.88;nan;102502.06;5036511;28;20678;-78
2022/01/25 04:49:23;;;;;;;16.73;14.30;;;;;;;3.53;93.78;102466.19;5030118;28;20682;-77
2022/01/25 04:51:55;;;;;;;19.07;16.47;;;;;;;3.50;93.05;102484.13;5035522;28;20209;-78
2022/01/25 04:57:29;;;;;;;16.60;14.33;;;;;;;3.74;93.51;102473.94;5031689;28;20256;-78
2022/01/25 05:00:02;;;;;;;18.40;16.50;;;;;;;3.54;93.08;102486.00;5034781;28;20608;-78
2022/01/25 05:02:39;;;;;;;22.30;17.77;;;;;;;3.72;93.13;102480.75;5034990;28;20206;-77
2022/01/25 05:05:12;;;;;;;19.60;16.73;;;;;;;3.62;92.26;102499.25;5040268;28;20689;-78
2022/01/25 05:07:45;;;;;;;22.67;17.60;;;;;;;3.51;91.58;102531.50;5034887;28;20664;-79
2022/01/25 05:10:11;;;;;;;24.20;17.80;;;;;;;3.48;90.99;102549.41;5034697;28;20707;-78
2022/01/25 05:12:43;;;;;;;21.53;17.97;;;;;;;3.27;91.44;102557.06;5034917;28;20206;-78
2022/01/25 05:15:22;;;;;;;23.90;17.53;;;;;;;3.42;92.13;102537.13;5035343;28;20225;-79
2022/01/25 05:18:04;;;;;;;23.87;17.47;;;;;;;3.31;91.91;102539.25;5035618;28;20206;-79
2022/01/25 05:23:15;;;;;;;23.60;17.90;;;;;;;3.36;92.14;102523.94;5035119;28;20707;-78
2022/01/25 05:25:42;;;;;;;28.23;18.20;;;;;;;3.21;93.21;102511.25;5034798;28;20712;-78
2022/01/25 05:28:09;;;;;;;24.00;17.50;;;;;;;3.22;93.99;102494.06;5035235;28;20205;-76
2022/01/25 05:30:36;;;;;;;24.80;18.30;;;;;;;3.20;93.97;102477.63;5034438;28;20616;-76
2022/01/25 05:33:04;;;;;;;24.17;18.37;;;;;;;3.27;94.15;102470.22;5035141;28;20256;-78
2022/01/25 05:35:30;;;;;;;24.33;18.33;;;;;;;3.46;94.63;102479.63;5090142;22;20286;-81
2022/01/25 05:37:56;;;;;;;27.33;18.93;;;;;;;3.59;94.01;102478.47;5080911;28;20196;-81
2022/01/25 05:40:39;;;;;;;29.33;19.43;;;;;;;3.41;92.27;102518.97;5079771;28;20212;-81
2022/01/25 05:46:00;;;;;;;30.43;20.43;;;;;;;3.21;91.63;102544.81;5080611;28;20255;-81
2022/01/25 05:48:30;;;;;;;40.33;24.23;;;;;;;3.19;89.36;102598.00;5081482;28;20200;-81
2022/01/25 05:50:57;;;;;;;44.47;25.50;;;;;;;3.05;87.31;102661.00;5079802;28;20258;-81
2022/01/25 05:53:24;;;;;;;43.23;25.30;;;;;;;3.07;86.41;102705.81;5081162;28;20209;-80
2022/01/25 05:55:51;;;;;;;42.03;26.07;;;;;;;3.23;86.75;102712.59;5079990;28;20221;-80
2022/01/25 05:58:18;;;;;;;45.37;25.87;;;;;;;3.26;87.11;102698.16;5080203;28;20204;-81
2022/01/25 06:00:44;;;;;;;41.90;25.17;;;;;;;3.41;87.44;102682.53;5080799;28;20205;-81
2022/01/25 06:03:11;;;;;;;40.93;23.80;;;;;;;3.45;88.02;102671.53;5080949;28;20212;-81
2022/01/25 06:05:38;;;;;;;34.13;23.40;;;;;;;3.25;89.30;102647.38;5080080;28;20229;-81
2022/01/25 06:08:05;;;;;;;36.90;21.50;;;;;;;3.20;90.37;102620.44;5071625;28;20202;-81
2022/01/25 06:10:32;;;;;;;39.20;24.77;;;;;;;3.29;90.98;102589.00;5060091;28;20214;-81
2022/01/25 06:12:59;;;;;;;43.90;25.27;;;;;;;3.30;90.67;102596.81;5061729;28;20205;-81
2022/01/25 06:15:25;;;;;;;45.63;26.27;;;;;;;3.36;90.67;102588.47;5062189;28;20226;-81
2022/01/25 06:17:52;;;;;;;43.63;25.10;;;;;;;3.45;90.83;102594.06;5061616;28;20626;-81
2022/01/25 06:20:19;;;;;;;48.53;27.13;;;;;;;3.47;90.09;102602.75;5060928;28;20761;-81
2022/01/25 06:22:47;;;;;;;49.33;27.93;;;;;;;3.53;89.60;102618.53;5062178;28;20202;-81
2022/01/25 06:25:16;;;;;;;47.93;27.07;;;;;;;3.52;87.81;102659.75;5062189;28;20229;-81
2022/01/25 06:27:44;;;;;;;46.97;26.70;;;;;;;3.52;87.83;102670.09;5062505;28;20247;-81
2022/01/25 06:30:13;;;;;;;49.67;28.90;;;;;;;3.46;88.41;102665.53;5062345;28;20232;-81
2022/01/25 06:32:40;;;;;;;52.70;27.63;;;;;;;3.34;88.79;102657.22;5062176;28;20208;-81
2022/01/25 06:35:07;;;;;;;46.13;25.93;;;;;;;3.46;88.24;102659.47;5070895;28;20236;-81
2022/01/25 06:37:34;;;;;;;44.67;26.77;;;;;;;3.44;84.38;102739.44;5079085;28;20201;-81
2022/01/25 06:40:02;;;;;;;52.27;30.87;;;;;;;3.50;83.69;102791.38;5062720;28;20205;-81
2022/01/25 06:42:31;;;;;;;47.40;27.40;;;;;;;3.50;83.16;102809.44;5062347;28;20198;-81
2022/01/25 06:45:01;;;;;;;43.07;25.00;;;;;;;3.58;84.12;102799.50;5061998;28;20233;-81
2022/01/25 06:47:27;;;;;;;41.00;25.77;;;;;;;3.43;85.04;102781.56;5062575;28;20232;-81
2022/01/25 06:49:54;;;;;;;43.80;26.53;;;;;;;3.37;84.43;102789.91;5063768;28;20282;-81
2022/01/25 06:52:21;;;;;;;47.73;26.47;;;;;;;3.41;84.46;102798.69;5063178;28;20202;-81
2022/01/25 06:54:47;;;;;;;52.80;29.43;;;;;;;3.52;85.03;102783.69;5062970;28;20230;-81
2022/01/25 06:57:15;;;;;;;48.07;28.60;;;;;;;3.56;84.64;102786.50;5063475;28;20215;-80
2022/01/25 06:59:42;;;;;;;48.40;28.20;;;;;;;3.47;84.84;102787.75;5062360;28;20206;-81
2022/01/25 07:02:08;;;;;;;50.10;26.33;;;;;;;3.43;84.75;102778.09;5080681;28;20208;-81
2022/01/25 07:04:35;;;;;;;45.53;26.33;;;;;;;3.47;84.42;102793.81;5082370;28;20235;-81
2022/01/25 07:07:01;;;;;;;42.67;25.70;;;;;;;3.49;83.36;102811.94;5081656;28;20217;-79
2022/01/25 07:09:28;;;;;;;44.57;24.90;;;;;;;3.45;84.34;102807.44;5083898;28;20201;-79
2022/01/25 07:11:55;;;;;;;41.50;26.00;;;;;;;3.51;84.33;102800.91;5085592;28;20208;-79
2022/01/25 07:14:22;;;;;;;44.90;26.40;;;;;;;3.64;84.82;102789.44;5083632;28;20780;-80
2022/01/25 07:16:49;;;;;;;41.07;25.47;;;;;;;3.60;83.92;102815.06;5083562;28;20227;-79
2022/01/25 07:19:15;;;;;;;43.83;26.10;;;;;;;3.67;83.49;102836.09;5085589;28;20637;-80
2022/01/25 07:21:41;;;;;;;43.37;25.50;;;;;;;3.76;82.93;102843.38;5086410;28;20201;-80
2022/01/25 07:24:08;;;;;;;46.27;27.27;;;;;;;3.76;81.53;102884.72;5086418;28;20235;-79
2022/01/25 07:26:34;;;;;;;47.03;25.13;;;;;;;3.82;82.05;102877.25;5084234;28;20274;-79
2022/01/25 07:32:53;;;;;;;;;;;;;;;;;;;;;
2022/01/25 07:35:20;;;;;;;40.73;24.57;;;;;;;3.93;79.86;102937.22;5076332;28;20267;-79
2022/01/25 07:37:49;;;;;;;46.23;26.23;;;;;;;3.89;79.95;102946.50;5086271;28;20196;-80
2022/01/25 07:40:16;;;;;;;44.33;27.30;;;;;;;3.75;79.75;102952.72;5083695;28;20204;-80
2022/01/25 07:42:43;;;;;;;44.20;25.30;;;;;;;3.49;80.46;102949.69;5083714;28;20220;-79
2022/01/25 07:45:11;;;;;;;46.07;25.87;;;;;;;3.31;81.46;102921.25;5083863;28;20217;-79
2022/01/25 07:47:38;;;;;;;52.77;27.67;;;;;;;3.50;82.12;102893.78;5078803;28;20679;-80
2022/01/25 07:50:07;;;;;;;45.90;25.37;;;;;;;3.53;82.38;102879.31;5077386;28;20201;-79
2022/01/25 07:52:34;;;;;;;47.97;26.10;;;;;;;3.56;82.43;102866.53;5076309;28;20694;-80
2022/01/25 07:55:01;;;;;;;48.57;26.10;;;;;;;3.66;83.12;102862.72;5076481;28;20232;-79
2022/01/25 07:57:27;;;;;;;39.83;24.43;;;;;;;3.66;82.88;102867.88;5076471;28;20741;-81
2022/01/25 07:59:55;;;;;;;43.53;25.77;;;;;;;3.66;82.92;102860.13;5075283;28;20201;-79
2022/01/25 08:02:21;;;;;;;42.33;24.30;;;;;;;3.55;82.95;102864.78;5074929;28;20255;-79
2022/01/25 08:04:48;;;;;;;45.67;25.17;;;;;;;3.37;83.16;102861.31;5075475;28;20784;-80
2022/01/25 08:07:14;;;;;;;43.43;24.10;;;;;;;3.30;83.79;102836.88;5073332;28;20264;-79
2022/01/25 08:09:42;;;;;;;44.23;25.07;;;;;;;3.05;84.14;102823.53;5055197;28;20213;-81
2022/01/25 08:12:11;;;;;;;39.63;22.70;;;;;;;2.86;83.69;102832.06;5057014;28;20205;-79
2022/01/25 08:14:38;;;;;;;43.43;23.33;;;;;;;2.94;84.12;102831.63;5077577;28;20223;-80
2022/01/25 08:17:05;;;;;;;38.20;23.43;;;;;;;3.07;83.62;102824.50;5078980;28;20197;-80
2022/01/25 08:19:32;;;;;;;99.93;40.63;;;;;;;3.23;83.54;102834.81;5074802;28;20197;-79
2022/01/25 08:21:59;;;;;;;49.00;25.50;;;;;;;3.40;84.30;102821.84;5076873;28;20196;-80
2022/01/25 08:24:25;;;;;;;46.27;25.57;;;;;;;3.52;85.00;102802.66;5074454;28;20274;-80
2022/01/25 08:26:55;;;;;;;36.50;22.70;;;;;;;3.66;84.27;102807.59;5072898;28;20228;-80
2022/01/25 08:29:22;;;;;;;34.57;22.63;;;;;;;3.53;82.31;102852.63;5074376;28;20271;-81
2022/01/25 08:31:51;;;;;;;40.33;22.97;;;;;;;3.47;81.89;102865.19;5075085;28;20196;-79
2022/01/25 08:34:18;;;;;;;38.63;21.67;;;;;;;3.56;82.46;102861.38;5074878;28;20240;-81
2022/01/25 08:36:59;;;;;;;37.90;22.13;;;;;;;3.68;83.38;102844.72;5075290;28;20866;-80
2022/01/25 08:39:28;;;;;;;39.87;22.47;;;;;;;3.61;83.09;102832.31;5072621;28;20216;-80
2022/01/25 08:41:56;;;;;;;38.57;23.67;;;;;;;3.67;83.68;102842.97;5076436;28;20204;-80
2022/01/25 08:44:22;;;;;;;38.63;22.73;;;;;;;3.75;84.10;102832.19;5076524;28;20654;-81
2022/01/25 08:46:48;;;;;;;40.20;23.63;;;;;;;3.78;83.75;102839.19;5075611;28;20233;-80
2022/01/25 08:49:15;;;;;;;37.37;23.80;;;;;;;3.81;83.61;102849.66;5075391;28;20208;-80
2022/01/25 08:51:42;;;;;;;46.03;27.07;;;;;;;3.65;82.63;102873.88;5074863;28;20719;-80
2022/01/25 08:54:08;;;;;;;41.93;24.83;;;;;;;3.62;83.21;102857.34;5075532;28;20208;-79
2022/01/25 08:56:34;;;;;;;38.93;23.60;;;;;;;3.73;84.58;102828.63;5074759;28;20197;-80
2022/01/25 08:59:33;;;;;;;41.90;23.37;;;;;;;3.87;85.67;102800.00;5075813;28;20630;-82
2022/01/25 09:02:19;;;;;;;35.50;22.53;;;;;;;3.94;85.44;102796.88;5071952;28;20250;-82
2022/01/25 09:04:49;;;;;;;36.47;21.67;;;;;;;3.98;84.84;102803.94;5076162;28;20238;-82
2022/01/25 09:07:15;;;;;;;39.13;22.40;;;;;;;4.08;85.35;102800.09;5073233;28;20228;-81
2022/01/25 09:09:42;;;;;;;38.87;24.23;;;;;;;4.07;84.91;102808.66;5055562;28;20232;-82
2022/01/25 09:12:09;;;;;;;37.50;22.23;;;;;;;4.12;84.21;102830.41;5054729;28;20747;-81
2022/01/25 09:14:37;;;;;;;35.60;22.70;;;;;;;4.11;83.33;102857.09;5054416;28;20276;-81
2022/01/25 09:17:07;;;;;;;35.17;22.30;;;;;;;4.13;83.91;102850.31;5054337;28;20255;-81
2022/01/25 09:19:34;;;;;;;39.73;22.50;;;;;;;4.15;84.11;102833.16;5053624;28;20906;-81
2022/01/25 09:22:00;;;;;;;35.57;21.63;;;;;;;4.13;84.70;102829.63;5054402;28;20283;-83
2022/01/25 09:24:28;;;;;;;34.90;22.10;;;;;;;4.19;84.39;102829.91;5058299;28;20229;-82
2022/01/25 09:26:54;;;;;;;32.47;21.00;;;;;;;4.20;84.49;102834.25;5059174;28;20256;-82
2022/01/25 09:29:20;;;;;;;35.13;22.20;;;;;;;4.24;84.43;102833.59;5058970;28;20262;-82
2022/01/25 09:31:48;;;;;;;37.37;21.63;;;;;;;4.14;84.79;102837.47;5058567;28;20210;-80
2022/01/25 09:34:15;;;;;;;38.13;22.63;;;;;;;4.16;83.51;102841.00;5058949;28;20240;-80
2022/01/25 09:36:42;;;;;;;36.53;22.23;;;;;;;4.13;83.51;102869.28;5077435;28;20209;-80
2022/01/25 09:39:08;;;;;;;34.90;21.03;;;;;;;4.17;83.08;102876.34;5061578;28;20205;-81
2022/01/25 09:41:35;;;;;;;32.93;21.80;;;;;;;4.17;81.54;102897.03;5059959;28;20202;-81
2022/01/25 09:44:02;;;;;;;41.77;23.23;;;;;;;4.24;82.53;102895.63;5059815;28;20205;-81
2022/01/25 09:46:28;;;;;;;35.53;23.00;;;;;;;4.26;82.81;102886.25;5059718;28;20261;-82
2022/01/25 09:48:56;;;;;;;36.83;23.07;;;;;;;4.33;82.47;102887.41;5059643;28;20256;-80
2022/01/25 09:51:25;;;;;;;38.97;23.10;;;;;;;4.11;81.88;102907.09;5057393;28;20209;-79
2022/01/25 09:53:52;;;;;;;39.30;23.20;;;;;;;4.17;82.47;102885.81;5057387;28;20209;-79
2022/01/25 09:56:18;;;;;;;40.87;24.07;;;;;;;3.80;82.43;102901.25;5058587;28;20225;-79
2022/01/25 09:58:44;;;;;;;38.43;22.50;;;;;;;3.71;83.63;102870.72;5058923;28;20206;-80
2022/01/25 10:01:11;;;;;;;41.90;23.73;;;;;;;3.85;84.37;102850.72;5058048;28;20212;-79
2022/01/25 10:03:39;;;;;;;45.07;26.00;;;;;;;3.97;83.89;102846.13;5058344;28;20259;-80
2022/01/25 10:06:14;;;;;;;55.27;31.13;;;;;;;3.89;83.66;102863.84;5073645;28;20642;-79
2022/01/25 10:08:41;;;;;;;43.50;25.33;;;;;;;3.90;83.29;102869.88;5063933;28;20208;-80
2022/01/25 10:11:09;;;;;;;43.73;25.07;;;;;;;3.97;83.65;102874.53;5057255;28;20214;-80
2022/01/25 10:13:38;;;;;;;42.30;24.73;;;;;;;3.97;82.99;102867.66;5057999;28;20202;-80
2022/01/25 10:16:06;;;;;;;43.40;23.33;;;;;;;3.79;82.88;102882.28;5057005;28;20712;-79
2022/01/25 10:18:42;;;;;;;42.17;23.83;;;;;;;3.64;83.60;102874.66;5056658;28;20236;-79
2022/01/25 10:21:15;;;;;;;42.43;23.37;;;;;;;3.75;84.28;102854.53;5056171;28;20264;-80
2022/01/25 10:23:59;;;;;;;51.47;24.40;;;;;;;3.55;84.58;102856.16;5056413;28;20260;-81
2022/01/25 10:26:26;;;;;;;44.40;22.97;;;;;;;3.47;84.82;102841.97;5057066;28;20221;-80
2022/01/25 10:28:53;;;;;;;43.20;23.53;;;;;;;3.31;85.33;102832.59;5056511;28;20676;-79
2022/01/25 10:31:19;;;;;;;44.60;22.43;;;;;;;3.15;85.97;102811.19;5056906;28;20205;-79
2022/01/25 10:33:52;;;;;;;42.73;24.37;;;;;;;3.07;86.03;102791.88;5056647;28;20205;-78
2022/01/25 10:36:22;;;;;;;42.37;23.33;;;;;;;3.35;86.94;102775.13;5074578;28;20233;-79
2022/01/25 10:38:58;;;;;;;47.03;24.30;;;;;;;3.47;86.08;102768.00;5073735;28;20193;-79
2022/01/25 10:41:27;;;;;;;48.10;24.23;;;;;;;3.32;86.42;102775.00;5075894;28;20200;-79
2022/01/25 10:43:57;;;;;;;41.73;23.27;;;;;;;3.21;87.05;102750.34;5076561;28;20197;-80
2022/01/25 10:46:26;;;;;;;48.73;24.63;;;;;;;3.15;87.54;102738.94;5076616;28;20224;-81
2022/01/25 10:48:57;;;;;;;48.23;24.50;;;;;;;3.25;87.83;102722.22;5076506;28;20200;-80
2022/01/25 10:51:27;;;;;;;49.47;25.57;;;;;;;3.51;88.97;102689.88;5075113;28;20203;-78
2022/01/25 10:53:58;;;;;;;48.97;24.27;;;;;;;3.74;88.24;102696.06;5074661;28;20229;-79
2022/01/25 10:56:24;;;;;;;43.73;24.33;;;;;;;3.76;87.02;102732.31;5075968;28;20204;-79
2022/01/25 10:59:12;;;;;;;41.60;24.33;;;;;;;3.65;85.97;102762.81;5075224;28;20225;-80
2022/01/25 11:01:41;;;;;;;48.10;26.00;;;;;;;3.81;86.55;102763.53;5075536;28;20197;-80
2022/01/25 11:04:10;;;;;;;47.37;24.70;;;;;;;3.91;87.55;102737.31;5074927;28;20266;-79
2022/01/25 11:06:38;;;;;;;46.40;24.70;;;;;;;3.93;86.48;102746.03;5074665;28;20216;-77
2022/01/25 11:09:07;;;;;;;50.90;28.97;;;;;;;3.86;85.99;102774.97;5074406;28;20200;-79
2022/01/25 11:11:37;;;;;;;53.67;27.67;;;;;;;3.80;85.28;102765.22;5074711;28;20196;-79
2022/01/25 11:16:48;;;;;;;52.30;25.50;;;;;;;3.56;85.17;102783.03;5077177;28;20195;-81
2022/01/25 11:19:14;;;;;;;49.47;25.20;;;;;;;3.72;85.91;102766.56;5076823;28;20808;-79
2022/01/25 11:21:43;;;;;;;51.57;26.60;;;;;;;3.97;87.04;102747.94;5075948;28;20192;-80
2022/01/25 11:24:12;;;;;;;50.50;25.87;;;;;;;4.05;86.19;102753.44;5074649;28;20205;-79
2022/01/25 11:26:39;;;;;;;46.70;26.07;;;;;;;4.03;84.91;102784.38;5077146;28;20225;-80
2022/01/25 11:29:06;;;;;;;43.67;24.73;;;;;;;4.02;85.23;102785.19;5077237;28;20193;-79
2022/01/25 11:31:33;;;;;;;42.83;24.20;;;;;;;4.02;84.80;102798.09;5075834;28;20246;-79
2022/01/25 11:34:01;;;;;;;42.70;24.23;;;;;;;4.22;85.31;102783.50;5076171;28;20671;-81
2022/01/25 11:36:27;;;;;;;46.57;25.37;;;;;;;4.36;85.12;102784.09;5072819;28;20209;-80
2022/01/25 11:38:55;;;;;;;46.07;25.43;;;;;;;4.37;84.03;102802.28;5096169;22;20706;-79
2022/01/25 11:41:24;;;;;;;45.17;25.10;;;;;;;4.13;83.15;102833.09;5073615;28;20213;-79
2022/01/25 11:44:07;;;;;;;47.07;26.63;;;;;;;3.90;84.04;102821.66;5074868;28;20232;-78
2022/01/25 11:46:37;;;;;;;51.27;26.20;;;;;;;3.83;84.09;102809.28;5071572;28;20224;-78
2022/01/25 11:49:06;;;;;;;43.27;24.50;;;;;;;3.92;84.94;102795.91;5074093;28;20711;-78
2022/01/25 11:51:34;;;;;;;49.60;26.67;;;;;;;4.01;85.10;102792.88;5073614;28;20193;-79
2022/01/25 11:54:04;;;;;;;47.33;26.60;;;;;;;4.00;85.08;102781.63;5072444;28;20212;-78
2022/01/25 11:56:30;;;;;;;47.37;25.30;;;;;;;3.72;84.93;102794.97;5068166;28;20228;-79
2022/01/25 11:58:59;;;;;;;49.87;26.57;;;;;;;3.70;85.77;102770.78;5073936;28;20216;-79
2022/01/25 12:01:27;;;;;;;50.07;26.03;;;;;;;3.66;85.99;102764.56;5072933;28;20197;-79
2022/01/25 12:03:57;;;;;;;48.70;25.63;;;;;;;3.73;86.09;102739.94;5073216;28;20201;-78
2022/01/25 12:06:28;;;;;;;44.70;25.20;;;;;;;3.80;85.99;102754.88;5074496;28;20254;-78
2022/01/25 12:09:10;;;;;;;48.60;25.20;;;;;;;3.60;85.98;102751.38;5074496;28;20227;-78
2022/01/25 12:11:43;;;;;;;52.60;26.20;;;;;;;3.42;86.69;102722.13;5071276;28;20201;-80
2022/01/25 12:14:13;;;;;;;51.03;27.23;;;;;;;3.56;86.99;102706.44;5054564;28;20193;-78
2022/01/25 12:16:44;;;;;;;49.13;23.83;;;;;;;3.79;87.60;102691.13;5053823;28;20198;-77
2022/01/25 12:19:14;;;;;;;50.40;25.83;;;;;;;3.80;86.86;102703.22;5053651;28;20282;-78
2022/01/25 12:22:05;;;;;;;47.20;24.60;;;;;;;4.06;87.80;102690.59;4372943;28;10000835;-78
2022/01/25 12:24:37;;;;;;;47.73;24.73;;;;;;;4.17;87.08;102686.78;5068631;28;20201;-78
2022/01/25 12:27:10;;;;;;;46.13;24.27;;;;;;;4.32;86.54;102682.28;5073191;28;20224;-78
2022/01/25 12:29:40;;;;;;;43.37;24.67;;;;;;;4.47;86.42;102702.72;5072775;28;20296;-78
2022/01/25 12:32:17;;;;;;;41.50;22.87;;;;;;;4.55;85.93;102708.22;5073096;28;20205;-79
2022/01/25 12:35:11;;;;;;;46.17;24.27;;;;;;;4.57;85.80;102712.63;5073127;28;20825;-79
2022/01/25 12:38:12;;;;;;;44.07;23.37;;;;;;;4.01;85.78;102728.28;5072517;28;20622;-79
2022/01/25 12:40:47;;;;;;;48.27;23.97;;;;;;;3.75;86.18;102690.09;5072109;28;20204;-78
2022/01/25 12:43:18;;;;;;;49.30;24.23;;;;;;;3.97;87.63;102640.28;5072661;28;20217;-79
2022/01/25 12:45:48;;;;;;;53.23;28.23;;;;;;;4.12;87.79;102632.31;5073091;28;20299;-78
2022/01/25 12:48:17;;;;;;;42.70;24.33;;;;;;;4.02;87.70;102635.28;5072746;28;20232;-78